createdAt,value
2022-09-12T00:01:11.980Z,79.35
2022-09-12T00:04:17.693Z,79.57
2022-09-12T00:07:23.275Z,79.46
2022-09-12T00:10:31.660Z,79.66
2022-09-12T00:13:41.332Z,79.77
2022-09-12T00:16:47.933Z,79.30
2022-09-12T00:19:56.043Z,79.46
2022-09-12T00:23:01.649Z,79.97
2022-09-12T00:26:11.761Z,80.31
2022-09-12T00:29:20.711Z,80.41
2022-09-12T00:32:26.463Z,80.01
2022-09-12T00:35:32.013Z,80.58
2022-09-12T00:38:39.013Z,80.62
2022-09-12T00:41:48.666Z,80.66
2022-09-12T00:44:55.848Z,80.73
2022-09-12T00:48:18.498Z,81.01
2022-09-12T00:51:24.917Z,81.03
2022-09-12T00:54:37.679Z,80.98
2022-09-12T00:57:57.387Z,80.99
2022-09-12T01:01:03.468Z,80.81
2022-09-12T01:04:09.443Z,80.36
2022-09-12T01:07:16.982Z,80.41
2022-09-12T01:10:25.081Z,80.35
2022-09-12T01:13:34.251Z,80.33
2022-09-12T01:16:41.967Z,80.49
2022-09-12T01:20:37.045Z,79.85
2022-09-12T01:24:26.491Z,79.85
2022-09-12T01:27:54.017Z,79.76
2022-09-12T01:31:12.579Z,79.73
2022-09-12T01:34:29.669Z,79.43
2022-09-12T01:37:53.199Z,78.97
2022-09-12T01:41:14.207Z,78.85
2022-09-12T01:44:42.089Z,79.06
2022-09-12T01:47:59.497Z,79.24
2022-09-12T01:51:23.109Z,78.54
2022-09-12T01:54:40.406Z,78.50
2022-09-12T01:57:54.246Z,77.95
2022-09-12T02:01:17.593Z,78.03
2022-09-12T02:04:34.533Z,77.93
2022-09-12T02:07:49.149Z,77.63
2022-09-12T02:11:03.289Z,77.49
2022-09-12T02:14:20.902Z,77.30
2022-09-12T02:17:31.557Z,77.50
2022-09-12T02:20:48.484Z,77.49
2022-09-12T02:24:17.553Z,77.40
2022-09-12T02:27:30.699Z,77.66
2022-09-12T02:30:48.944Z,77.97
2022-09-12T02:34:16.843Z,77.77
2022-09-12T02:37:42.201Z,77.62
2022-09-12T02:40:48.081Z,77.46
2022-09-12T02:43:57.754Z,77.37
2022-09-12T02:47:12.210Z,77.17
2022-09-12T02:50:18.206Z,78.01
2022-09-12T02:53:26.982Z,77.88
2022-09-12T02:56:34.385Z,78.61
2022-09-12T02:59:40.189Z,78.21
2022-09-12T03:03:23.060Z,77.61
2022-09-12T03:06:42.991Z,77.88
2022-09-12T03:10:10.609Z,78.62
2022-09-12T03:13:27.789Z,78.65
2022-09-12T03:16:47.979Z,78.42
2022-09-12T03:20:07.281Z,78.38
2022-09-12T03:23:29.808Z,78.39
2022-09-12T03:26:47.572Z,77.97
2022-09-12T03:29:56.789Z,77.59
2022-09-12T03:33:02.325Z,77.89
2022-09-12T03:36:08.951Z,78.23
2022-09-12T03:39:18.351Z,77.96
2022-09-12T03:42:26.491Z,77.92
2022-09-12T03:45:32.153Z,77.68
2022-09-12T03:48:37.889Z,77.58
2022-09-12T03:51:43.737Z,77.35
2022-09-12T03:54:49.251Z,77.98
2022-09-12T03:57:59.036Z,77.75
2022-09-12T04:01:04.587Z,78.02
2022-09-12T04:04:10.119Z,77.90
2022-09-12T04:07:15.675Z,77.69
2022-09-12T04:10:21.549Z,78.15
2022-09-12T04:13:29.781Z,77.44
2022-09-12T04:16:35.401Z,77.27
2022-09-12T04:19:41.353Z,76.98
2022-09-12T04:22:46.950Z,76.60
2022-09-12T04:26:00.086Z,76.63
2022-09-12T04:29:08.400Z,76.35
2022-09-12T04:32:15.246Z,76.64
2022-09-12T04:35:20.846Z,76.11
2022-09-12T04:38:26.956Z,75.88
2022-09-12T04:41:36.814Z,75.81
2022-09-12T04:44:45.014Z,75.88
2022-09-12T04:47:50.848Z,76.24
2022-09-12T04:50:56.431Z,76.65
2022-09-12T04:54:06.547Z,76.52
2022-09-12T04:57:12.135Z,76.25
2022-09-12T05:00:20.921Z,76.14
2022-09-12T05:03:26.538Z,76.05
2022-09-12T05:06:37.549Z,75.47
2022-09-12T05:09:43.159Z,75.93
2022-09-12T05:12:51.926Z,76.52
2022-09-12T05:16:02.509Z,75.74
2022-09-12T05:19:09.359Z,76.27
2022-09-12T05:22:14.987Z,75.02
2022-09-12T05:25:20.583Z,74.67
2022-09-12T05:28:33.101Z,74.45
2022-09-12T05:31:41.771Z,73.49
2022-09-12T05:34:47.643Z,73.03
2022-09-12T05:37:53.380Z,71.92
2022-09-12T05:41:07.975Z,68.66
2022-09-12T05:44:17.298Z,69.09
2022-09-12T05:47:25.558Z,67.82
2022-09-12T05:50:31.241Z,67.58
2022-09-12T05:53:36.831Z,67.60
2022-09-12T05:56:45.713Z,67.99
2022-09-12T05:59:51.354Z,68.49
2022-09-12T06:02:59.549Z,67.35
2022-09-12T06:06:07.733Z,67.40
2022-09-12T06:09:15.833Z,66.43
2022-09-12T06:12:21.470Z,66.43
2022-09-12T06:15:27.045Z,65.26
2022-09-12T06:18:35.886Z,63.33
2022-09-12T06:21:41.740Z,64.28
2022-09-12T06:24:47.671Z,62.34
2022-09-12T06:27:54.206Z,62.88
2022-09-12T06:31:07.485Z,62.60
2022-09-12T06:34:19.808Z,62.60
2022-09-12T06:37:28.674Z,62.89
2022-09-12T06:40:34.691Z,61.91
2022-09-12T06:43:41.786Z,61.27
2022-09-12T06:46:48.921Z,60.44
2022-09-12T06:49:59.305Z,60.17
2022-09-12T06:53:05.024Z,59.28
2022-09-12T06:56:16.349Z,59.28
2022-09-12T06:59:23.278Z,58.92
2022-09-12T07:02:29.169Z,59.79
2022-09-12T07:05:37.594Z,60.69
2022-09-12T07:08:44.693Z,61.24
2022-09-12T07:11:50.589Z,60.68
2022-09-12T07:14:56.161Z,61.67
2022-09-12T07:18:01.743Z,61.52
2022-09-12T07:21:14.981Z,59.54
2022-09-12T07:24:20.607Z,58.97
2022-09-12T07:27:27.326Z,58.73
2022-09-12T07:30:33.086Z,57.20
2022-09-12T07:33:39.260Z,52.61
2022-09-12T07:36:47.643Z,51.03
2022-09-12T07:39:53.364Z,51.69
2022-09-12T07:42:59.037Z,53.01
2022-09-12T07:46:08.100Z,52.32
2022-09-12T07:49:15.630Z,52.58
2022-09-12T07:52:23.832Z,50.09
2022-09-12T07:55:30.185Z,48.79
2022-09-12T07:58:38.728Z,50.02
2022-09-12T08:01:44.430Z,49.76
2022-09-12T08:04:51.629Z,50.08
2022-09-12T08:07:59.992Z,51.67
2022-09-12T08:11:09.185Z,51.10
2022-09-12T08:14:18.016Z,52.64
2022-09-12T08:17:24.358Z,54.24
2022-09-12T08:20:32.145Z,54.30
2022-09-12T08:23:43.369Z,53.95
2022-09-12T08:26:49.540Z,53.92
2022-09-12T08:29:57.410Z,54.33
2022-09-12T08:33:03.508Z,52.59
2022-09-12T08:36:14.317Z,49.22
2022-09-12T08:39:30.646Z,46.62
2022-09-12T08:43:01.559Z,43.88
2022-09-12T08:46:22.023Z,41.27
2022-09-12T08:49:35.775Z,42.74
2022-09-12T08:52:58.284Z,41.38
2022-09-12T08:56:13.766Z,40.26
2022-09-12T08:59:19.983Z,39.74
2022-09-12T09:03:00.906Z,40.52
2022-09-12T09:06:57.604Z,36.73
2022-09-12T09:10:52.549Z,36.29
2022-09-12T09:14:44.372Z,36.38
2022-09-12T09:18:01.590Z,39.67
2022-09-12T09:21:24.294Z,38.53
2022-09-12T09:24:45.672Z,36.49
2022-09-12T09:28:10.152Z,34.79
2022-09-12T09:31:20.897Z,35.79
2022-09-12T09:34:32.298Z,35.86
2022-09-12T09:37:48.709Z,36.50
2022-09-12T09:41:22.010Z,36.67
2022-09-12T09:44:31.176Z,40.26
2022-09-12T09:47:39.302Z,40.33
2022-09-12T09:50:46.770Z,39.86
2022-09-12T09:53:58.950Z,36.91
2022-09-12T09:57:05.345Z,35.59
2022-09-12T10:00:27.882Z,31.70
2022-09-12T10:03:42.780Z,32.38
2022-09-12T10:06:50.093Z,32.64
2022-09-12T10:10:19.486Z,31.85
2022-09-12T10:13:34.782Z,33.14
2022-09-12T10:16:57.582Z,32.21
2022-09-12T10:20:22.985Z,29.74
2022-09-12T10:23:41.278Z,30.90
2022-09-12T10:26:56.966Z,31.00
2022-09-12T10:30:10.275Z,31.41
2022-09-12T10:33:16.501Z,29.80
2022-09-12T10:36:26.644Z,29.78
2022-09-12T10:39:39.223Z,31.14
2022-09-12T10:42:52.490Z,31.91
2022-09-12T10:46:02.786Z,32.47
2022-09-12T10:49:29.180Z,32.57
2022-09-12T10:52:37.313Z,32.06
2022-09-12T10:56:06.251Z,32.44
2022-09-12T10:59:34.448Z,31.94
2022-09-12T11:02:56.278Z,33.55
2022-09-12T11:06:05.238Z,32.91
2022-09-12T11:09:28.436Z,34.66
2022-09-12T11:12:50.692Z,35.37
2022-09-12T11:16:18.784Z,34.48
2022-09-12T11:20:00.115Z,34.54
2022-09-12T11:23:51.437Z,34.33
2022-09-12T11:27:25.725Z,33.79
2022-09-12T11:30:45.774Z,33.71
2022-09-12T11:33:56.957Z,34.03
2022-09-12T11:37:41.255Z,35.48
2022-09-12T11:40:56.421Z,35.94
2022-09-12T11:44:21.177Z,35.07
2022-09-12T11:47:31.949Z,36.33
2022-09-12T11:50:46.683Z,36.58
2022-09-12T11:54:08.750Z,37.68
2022-09-12T11:57:35.447Z,37.13
2022-09-12T12:00:52.991Z,39.89
2022-09-12T12:03:58.893Z,39.38
2022-09-12T12:07:10.710Z,40.04
2022-09-12T12:10:44.540Z,40.43
2022-09-12T12:14:05.228Z,40.53
2022-09-12T12:17:23.716Z,37.61
2022-09-12T12:20:30.353Z,36.15
2022-09-12T12:23:38.590Z,36.70
2022-09-12T12:27:01.553Z,36.59
2022-09-12T12:31:01.062Z,37.47
2022-09-12T12:34:34.920Z,38.95
2022-09-12T12:38:02.579Z,40.19
2022-09-12T12:41:46.147Z,40.12
2022-09-12T12:44:56.706Z,40.63
2022-09-12T12:48:13.903Z,41.31
2022-09-12T12:51:45.825Z,42.11
2022-09-12T12:54:59.155Z,41.57
2022-09-12T12:58:13.436Z,40.57
2022-09-12T13:01:25.767Z,40.65
2022-09-12T13:04:41.707Z,41.09
2022-09-12T13:07:57.230Z,40.85
2022-09-12T13:11:10.566Z,42.13
2022-09-12T13:14:54.900Z,43.29
2022-09-12T13:18:07.344Z,42.92
2022-09-12T13:21:19.430Z,43.18
2022-09-12T13:24:27.853Z,43.86
2022-09-12T13:27:33.542Z,43.42
2022-09-12T13:30:47.494Z,43.62
2022-09-12T13:34:08.848Z,43.43
2022-09-12T13:37:43.297Z,44.35
2022-09-12T13:41:27.533Z,44.53
2022-09-12T13:44:43.506Z,44.96
2022-09-12T13:48:00.665Z,45.28
2022-09-12T13:51:08.870Z,46.46
2022-09-12T13:54:24.442Z,46.89
2022-09-12T13:57:41.518Z,47.02
2022-09-12T14:00:48.287Z,48.51
2022-09-12T14:04:09.521Z,49.34
2022-09-12T14:07:22.562Z,49.43
2022-09-12T14:10:38.992Z,48.97
2022-09-12T14:13:48.735Z,48.19
2022-09-12T14:16:55.158Z,48.41
2022-09-12T14:20:05.259Z,49.64
2022-09-12T14:23:27.730Z,49.73
2022-09-12T14:26:38.742Z,50.15
2022-09-12T14:29:53.686Z,50.86
2022-09-12T14:33:22.900Z,51.14
2022-09-12T14:36:35.623Z,50.69
2022-09-12T14:39:47.720Z,50.36
2022-09-12T14:43:00.624Z,50.15
2022-09-12T14:46:20.259Z,49.84
2022-09-12T14:49:37.452Z,49.82
2022-09-12T14:52:43.819Z,50.60
2022-09-12T14:55:57.047Z,49.03
2022-09-12T14:59:31.571Z,48.72
2022-09-12T15:02:48.044Z,49.02
2022-09-12T15:05:54.825Z,48.64
2022-09-12T15:09:05.242Z,50.24
2022-09-12T15:12:14.066Z,49.78
2022-09-12T15:15:24.769Z,50.20
2022-09-12T15:18:34.968Z,50.38
2022-09-12T15:21:41.385Z,50.58
2022-09-12T15:24:46.894Z,50.46
2022-09-12T15:28:06.204Z,51.27
2022-09-12T15:31:26.583Z,50.46
2022-09-12T15:34:36.094Z,51.49
2022-09-12T15:37:42.466Z,51.83
2022-09-12T15:40:56.085Z,52.14
2022-09-12T15:44:02.754Z,52.05
2022-09-12T15:47:11.906Z,51.67
2022-09-12T15:50:24.950Z,52.07
2022-09-12T15:53:34.840Z,50.92
2022-09-12T15:56:40.332Z,51.65
2022-09-12T15:59:45.953Z,52.19
2022-09-12T16:02:56.101Z,52.78
2022-09-12T16:06:12.248Z,54.38
2022-09-12T16:09:21.270Z,54.53
2022-09-12T16:12:28.720Z,55.03
2022-09-12T16:15:36.391Z,55.11
2022-09-12T16:18:43.818Z,55.69
2022-09-12T16:21:56.895Z,56.46
2022-09-12T16:25:18.441Z,56.35
2022-09-12T16:28:23.999Z,56.82
2022-09-12T16:31:34.142Z,57.56
2022-09-12T16:34:39.831Z,57.67
2022-09-12T16:37:50.866Z,58.04
2022-09-12T16:41:10.450Z,58.00
2022-09-12T16:44:18.517Z,58.37
2022-09-12T16:47:27.116Z,58.76
2022-09-12T16:50:32.723Z,59.28
2022-09-12T16:53:49.473Z,59.73
2022-09-12T16:56:55.208Z,60.38
2022-09-12T17:00:00.714Z,60.21
2022-09-12T17:03:06.684Z,60.83
2022-09-12T17:06:20.196Z,60.91
2022-09-12T17:09:29.715Z,61.65
2022-09-12T17:12:35.333Z,62.08
2022-09-12T17:15:42.681Z,62.19
2022-09-12T17:18:50.454Z,62.59
2022-09-12T17:21:56.410Z,62.59
2022-09-12T17:25:13.271Z,63.51
2022-09-12T17:28:21.197Z,63.62
2022-09-12T17:31:27.024Z,64.08
2022-09-12T17:34:33.385Z,63.82
2022-09-12T17:37:40.697Z,64.65
2022-09-12T17:40:59.541Z,65.03
2022-09-12T17:44:07.852Z,65.28
2022-09-12T17:47:15.855Z,65.63
2022-09-12T17:50:31.599Z,65.94
2022-09-12T17:53:38.116Z,66.34
2022-09-12T17:56:49.245Z,67.21
2022-09-12T17:59:58.161Z,66.98
2022-09-12T18:03:02.444Z,67.30
2022-09-12T18:06:12.754Z,66.86
2022-09-12T18:09:22.081Z,66.99
2022-09-12T18:12:33.980Z,66.86
2022-09-12T18:15:40.200Z,66.64
2022-09-12T18:18:46.717Z,66.71
2022-09-12T18:21:53.053Z,66.41
2022-09-12T18:24:59.292Z,66.81
2022-09-12T18:28:15.513Z,66.86
2022-09-12T18:31:29.443Z,67.18
2022-09-12T18:34:35.515Z,67.50
2022-09-12T18:37:43.058Z,67.78
2022-09-12T18:40:49.347Z,67.99
2022-09-12T18:44:02.928Z,68.36
2022-09-12T18:47:12.851Z,69.03
2022-09-12T18:50:21.234Z,68.66
2022-09-12T18:53:27.373Z,68.79
2022-09-12T18:56:36.186Z,68.48
2022-09-12T18:59:45.021Z,68.93
2022-09-12T19:02:50.795Z,69.02
2022-09-12T19:05:56.742Z,68.99
2022-09-12T19:09:07.598Z,69.47
2022-09-12T19:12:14.443Z,69.72
2022-09-12T19:15:22.803Z,69.92
2022-09-12T19:18:28.723Z,70.03
2022-09-12T19:21:37.669Z,69.76
2022-09-12T19:24:43.838Z,70.09
2022-09-12T19:27:49.576Z,69.80
2022-09-12T19:30:57.971Z,69.82
2022-09-12T19:34:05.494Z,70.37
2022-09-12T19:37:11.178Z,70.36
2022-09-12T19:40:17.049Z,70.39
2022-09-12T19:43:22.715Z,70.34
2022-09-12T19:46:31.431Z,70.04
2022-09-12T19:49:39.851Z,70.72
2022-09-12T19:53:06.244Z,70.78
2022-09-12T19:56:34.411Z,71.07
2022-09-12T19:59:40.128Z,70.98
2022-09-12T20:02:54.441Z,70.63
2022-09-12T20:06:21.321Z,71.12
2022-09-12T20:09:46.888Z,70.71
2022-09-12T20:12:57.439Z,70.84
2022-09-12T20:16:10.540Z,71.07
2022-09-12T20:19:18.758Z,70.96
2022-09-12T20:22:24.516Z,71.36
2022-09-12T20:25:30.672Z,71.03
2022-09-12T20:28:36.295Z,71.52
2022-09-12T20:31:45.367Z,71.53
2022-09-12T20:34:55.611Z,71.35
2022-09-12T20:38:01.214Z,71.62
2022-09-12T20:41:11.100Z,71.79
2022-09-12T20:44:17.751Z,72.02
2022-09-12T20:47:23.354Z,71.60
2022-09-12T20:50:31.541Z,71.32
2022-09-12T20:53:38.589Z,71.36
2022-09-12T20:56:44.487Z,71.34
2022-09-12T20:59:50.675Z,71.90
2022-09-12T21:02:57.001Z,72.45
2022-09-12T21:06:05.344Z,72.94
2022-09-12T21:09:11.125Z,73.18
2022-09-12T21:12:16.704Z,72.75
2022-09-12T21:15:22.353Z,72.14
2022-09-12T21:18:28.325Z,72.10
2022-09-12T21:21:37.078Z,71.73
2022-09-12T21:24:42.712Z,72.06
2022-09-12T21:27:48.269Z,72.30
2022-09-12T21:30:56.358Z,72.44
2022-09-12T21:34:02.395Z,72.46
2022-09-12T21:37:10.694Z,72.21
2022-09-12T21:40:16.331Z,72.12
2022-09-12T21:43:21.901Z,72.88
2022-09-12T21:46:27.543Z,72.69
2022-09-12T21:49:33.139Z,72.49
2022-09-12T21:52:41.255Z,72.05
2022-09-12T21:55:46.968Z,72.32
2022-09-12T21:58:52.753Z,71.89
2022-09-12T22:01:58.466Z,71.91
2022-09-12T22:05:04.341Z,72.00
2022-09-12T22:08:15.451Z,71.71
2022-09-12T22:11:22.621Z,71.90
2022-09-12T22:14:28.419Z,72.13
2022-09-12T22:17:34.114Z,71.66
2022-09-12T22:20:39.873Z,71.90
2022-09-12T22:24:02.330Z,72.30
2022-09-12T22:27:10.489Z,71.99
2022-09-12T22:30:18.713Z,72.51
2022-09-12T22:33:24.273Z,72.00
2022-09-12T22:36:31.383Z,72.15
2022-09-12T22:39:40.799Z,71.96
2022-09-12T22:42:46.581Z,72.64
2022-09-12T22:45:52.516Z,72.97
2022-09-12T22:48:58.538Z,72.84
2022-09-12T22:52:05.331Z,72.95
2022-09-12T22:55:14.440Z,72.52
2022-09-12T22:58:20.043Z,73.00
2022-09-12T23:01:26.029Z,72.61
2022-09-12T23:04:31.695Z,73.21
2022-09-12T23:07:37.305Z,73.25
2022-09-12T23:10:45.507Z,73.88
2022-09-12T23:13:53.845Z,73.77
2022-09-12T23:16:59.457Z,73.59
2022-09-12T23:20:05.620Z,73.73
2022-09-12T23:23:11.182Z,73.19
2022-09-12T23:26:22.329Z,73.00
2022-09-12T23:29:28.359Z,73.33
2022-09-12T23:32:33.895Z,73.65
2022-09-12T23:35:39.439Z,74.10
2022-09-12T23:38:48.643Z,74.31
2022-09-12T23:42:00.099Z,73.45
2022-09-12T23:45:07.247Z,73.55
2022-09-12T23:48:15.451Z,73.41
2022-09-12T23:51:21.917Z,73.46
2022-09-12T23:54:27.649Z,73.99
2022-09-12T23:57:35.827Z,74.13
